createdAt,value
2023-01-07T00:02:00.756Z,90.23
2023-01-07T00:04:29.753Z,91.10
2023-01-07T00:06:56.091Z,90.85
2023-01-07T00:09:25.668Z,90.36
2023-01-07T00:11:52.127Z,90.90
2023-01-07T00:14:21.023Z,91.52
2023-01-07T00:16:49.833Z,90.55
2023-01-07T00:19:16.380Z,91.73
2023-01-07T00:21:43.071Z,90.63
2023-01-07T00:24:10.977Z,91.14
2023-01-07T00:26:43.956Z,91.24
2023-01-07T00:29:10.434Z,91.52
2023-01-07T00:31:39.449Z,91.82
2023-01-07T00:34:08.007Z,93.10
2023-01-07T00:36:36.136Z,92.53
2023-01-07T00:39:14.282Z,92.22
2023-01-07T00:41:40.823Z,92.73
2023-01-07T00:44:08.218Z,92.70
2023-01-07T00:46:35.004Z,92.28
2023-01-07T00:49:01.983Z,92.52
2023-01-07T00:51:28.497Z,93.23
2023-01-07T00:53:54.971Z,92.02
2023-01-07T00:56:23.801Z,93.01
2023-01-07T00:58:50.204Z,92.56
2023-01-07T01:01:19.204Z,92.65
2023-01-07T01:03:45.801Z,92.93
2023-01-07T01:06:16.586Z,92.66
2023-01-07T01:08:47.217Z,92.53
2023-01-07T01:11:15.950Z,92.93
2023-01-07T01:13:43.818Z,93.41
2023-01-07T01:16:13.576Z,92.40
2023-01-07T01:18:46.255Z,92.99
2023-01-07T01:21:15.270Z,92.94
2023-01-07T01:23:42.774Z,91.78
2023-01-07T01:26:13.855Z,93.11
2023-01-07T01:28:42.613Z,93.12
2023-01-07T01:31:14.869Z,92.79
2023-01-07T01:33:41.274Z,92.05
2023-01-07T01:36:11.896Z,92.33
2023-01-07T01:38:38.861Z,91.73
2023-01-07T01:41:06.215Z,92.20
2023-01-07T01:43:44.376Z,92.89
2023-01-07T01:46:19.675Z,92.59
2023-01-07T01:49:03.627Z,93.14
2023-01-07T01:51:36.937Z,93.33
2023-01-07T01:54:07.221Z,92.98
2023-01-07T01:56:36.892Z,92.83
2023-01-07T01:59:08.459Z,93.18
2023-01-07T02:01:36.864Z,93.36
2023-01-07T02:04:19.185Z,93.00
2023-01-07T02:07:07.385Z,92.78
2023-01-07T02:09:37.235Z,93.21
2023-01-07T02:12:31.138Z,92.77
2023-01-07T02:15:16.568Z,92.63
2023-01-07T02:18:01.276Z,92.53
2023-01-07T02:20:45.297Z,92.11
2023-01-07T02:23:40.452Z,93.12
2023-01-07T02:26:50.164Z,93.16
2023-01-07T02:29:36.617Z,92.85
2023-01-07T02:32:34.366Z,92.78
2023-01-07T02:35:29.870Z,92.72
2023-01-07T02:38:12.692Z,92.87
2023-01-07T02:40:43.042Z,92.76
2023-01-07T02:43:22.150Z,92.56
2023-01-07T02:46:13.175Z,93.07
2023-01-07T02:48:41.049Z,92.92
2023-01-07T02:51:10.000Z,93.00
2023-01-07T02:53:36.939Z,93.15
2023-01-07T02:56:25.153Z,93.36
2023-01-07T02:59:16.183Z,93.09
2023-01-07T03:02:24.224Z,93.86
2023-01-07T03:05:26.548Z,93.57
2023-01-07T03:07:55.892Z,93.61
2023-01-07T03:10:30.491Z,93.33
2023-01-07T03:13:12.641Z,93.88
2023-01-07T03:15:44.755Z,93.88
2023-01-07T03:18:29.036Z,93.98
2023-01-07T03:21:03.651Z,94.21
2023-01-07T03:23:31.066Z,94.13
2023-01-07T03:26:03.026Z,94.14
2023-01-07T03:28:36.110Z,94.51
2023-01-07T03:31:04.802Z,94.44
2023-01-07T03:33:40.127Z,94.24
2023-01-07T03:36:11.269Z,94.35
2023-01-07T03:38:38.568Z,94.60
2023-01-07T03:41:05.944Z,93.31
2023-01-07T03:43:32.425Z,93.54
2023-01-07T03:46:01.380Z,94.05
2023-01-07T03:48:28.230Z,94.10
2023-01-07T03:50:57.010Z,94.17
2023-01-07T03:53:25.598Z,95.09
2023-01-07T03:55:51.999Z,94.64
2023-01-07T03:58:18.390Z,95.13
2023-01-07T04:00:44.853Z,94.74
2023-01-07T04:03:12.625Z,95.02
2023-01-07T04:05:39.108Z,95.17
2023-01-07T04:08:05.473Z,94.93
2023-01-07T04:10:37.170Z,95.61
2023-01-07T04:13:03.503Z,95.19
2023-01-07T04:15:29.856Z,95.61
2023-01-07T04:17:56.654Z,95.60
2023-01-07T04:20:22.999Z,95.27
2023-01-07T04:22:49.381Z,95.71
2023-01-07T04:25:16.320Z,95.79
2023-01-07T04:27:42.732Z,95.59
2023-01-07T04:30:09.669Z,95.82
2023-01-07T04:32:36.964Z,95.38
2023-01-07T04:35:06.019Z,95.99
2023-01-07T04:37:32.403Z,95.43
2023-01-07T04:39:58.799Z,95.41
2023-01-07T04:42:27.412Z,95.61
2023-01-07T04:44:56.398Z,95.23
2023-01-07T04:47:24.219Z,95.45
2023-01-07T04:49:53.219Z,95.63
2023-01-07T04:52:19.580Z,95.46
2023-01-07T04:54:46.012Z,95.74
2023-01-07T04:57:12.373Z,94.85
2023-01-07T04:59:38.798Z,95.16
2023-01-07T05:02:06.877Z,95.26
2023-01-07T05:04:33.488Z,95.13
2023-01-07T05:06:59.935Z,95.44
2023-01-07T05:09:28.774Z,95.13
2023-01-07T05:11:55.166Z,95.26
2023-01-07T05:14:21.663Z,94.60
2023-01-07T05:16:50.671Z,94.32
2023-01-07T05:19:17.261Z,93.86
2023-01-07T05:21:43.636Z,94.22
2023-01-07T05:24:10.171Z,94.11
2023-01-07T05:26:36.629Z,93.54
2023-01-07T05:29:05.158Z,93.34
2023-01-07T05:31:31.549Z,93.19
2023-01-07T05:33:58.060Z,93.06
2023-01-07T05:36:27.116Z,93.87
2023-01-07T05:38:53.523Z,93.18
2023-01-07T05:41:20.056Z,93.38
2023-01-07T05:43:46.423Z,93.91
2023-01-07T05:46:13.171Z,93.78
2023-01-07T05:48:39.583Z,93.91
2023-01-07T05:51:06.185Z,93.63
2023-01-07T05:53:32.734Z,93.40
2023-01-07T05:56:00.294Z,93.97
2023-01-07T05:58:27.962Z,93.41
2023-01-07T06:00:55.640Z,93.29
2023-01-07T06:03:22.582Z,93.62
2023-01-07T06:05:49.228Z,93.03
2023-01-07T06:08:15.676Z,92.55
2023-01-07T06:10:44.903Z,92.44
2023-01-07T06:13:11.347Z,92.71
2023-01-07T06:15:39.168Z,92.56
2023-01-07T06:18:05.637Z,92.69
2023-01-07T06:20:34.743Z,92.95
2023-01-07T06:23:04.319Z,93.09
2023-01-07T06:25:30.882Z,92.90
2023-01-07T06:27:58.363Z,92.90
2023-01-07T06:30:25.261Z,92.95
2023-01-07T06:32:54.264Z,92.58
2023-01-07T06:35:20.752Z,92.78
2023-01-07T06:37:47.232Z,92.76
2023-01-07T06:40:16.086Z,92.85
2023-01-07T06:42:42.446Z,92.67
2023-01-07T06:45:11.023Z,93.38
2023-01-07T06:47:37.474Z,92.82
2023-01-07T06:50:04.162Z,92.82
2023-01-07T06:52:31.394Z,92.98
2023-01-07T06:54:57.831Z,92.99
2023-01-07T06:57:29.029Z,92.77
2023-01-07T06:59:55.407Z,93.17
2023-01-07T07:02:26.394Z,92.48
2023-01-07T07:04:53.749Z,92.53
2023-01-07T07:07:20.656Z,92.85
2023-01-07T07:09:47.460Z,92.86
2023-01-07T07:12:19.704Z,93.91
2023-01-07T07:14:46.207Z,92.47
2023-01-07T07:17:12.622Z,92.72
2023-01-07T07:19:39.003Z,92.14
2023-01-07T07:22:05.387Z,92.28
2023-01-07T07:24:31.922Z,91.41
2023-01-07T07:27:00.029Z,91.43
2023-01-07T07:29:27.887Z,91.18
2023-01-07T07:31:54.251Z,90.75
2023-01-07T07:34:23.032Z,90.24
2023-01-07T07:36:49.430Z,90.08
2023-01-07T07:39:15.836Z,89.51
2023-01-07T07:41:45.014Z,89.27
2023-01-07T07:44:11.400Z,88.49
2023-01-07T07:46:38.097Z,87.57
2023-01-07T07:49:05.993Z,87.00
2023-01-07T07:51:33.272Z,87.14
2023-01-07T07:53:59.620Z,86.70
2023-01-07T07:56:25.972Z,85.57
2023-01-07T07:58:53.805Z,85.44
2023-01-07T08:01:20.263Z,84.76
2023-01-07T08:03:46.961Z,84.88
2023-01-07T08:06:13.891Z,85.54
2023-01-07T08:08:41.272Z,85.01
2023-01-07T08:11:10.285Z,84.46
2023-01-07T08:13:37.857Z,84.08
2023-01-07T08:16:04.442Z,83.63
2023-01-07T08:18:33.269Z,83.99
2023-01-07T08:20:59.733Z,82.13
2023-01-07T08:23:28.016Z,82.87
2023-01-07T08:25:58.540Z,81.91
2023-01-07T08:28:24.939Z,81.06
2023-01-07T08:30:51.295Z,81.79
2023-01-07T08:33:17.874Z,80.92
2023-01-07T08:35:44.963Z,79.88
2023-01-07T08:38:11.401Z,80.21
2023-01-07T08:40:40.747Z,80.35
2023-01-07T08:43:09.182Z,80.01
2023-01-07T08:45:36.204Z,80.05
2023-01-07T08:48:03.088Z,79.80
2023-01-07T08:50:33.133Z,79.65
2023-01-07T08:53:00.255Z,78.74
2023-01-07T08:55:26.709Z,78.90
2023-01-07T08:57:53.221Z,78.46
2023-01-07T09:00:21.025Z,78.61
2023-01-07T09:02:49.821Z,78.30
2023-01-07T09:05:19.194Z,78.13
2023-01-07T09:07:45.650Z,77.19
2023-01-07T09:10:12.424Z,77.71
2023-01-07T09:12:41.051Z,77.87
2023-01-07T09:15:08.406Z,76.30
2023-01-07T09:17:37.182Z,77.35
2023-01-07T09:20:05.602Z,76.94
2023-01-07T09:22:33.604Z,77.22
2023-01-07T09:24:59.999Z,76.69
2023-01-07T09:27:29.679Z,76.51
2023-01-07T09:29:58.416Z,76.23
2023-01-07T09:32:26.085Z,75.47
2023-01-07T09:34:52.618Z,75.19
2023-01-07T09:37:19.059Z,75.31
2023-01-07T09:39:45.419Z,75.28
2023-01-07T09:42:24.181Z,74.18
2023-01-07T09:45:01.363Z,74.01
2023-01-07T09:47:30.463Z,74.24
2023-01-07T09:50:22.256Z,73.93
2023-01-07T09:52:53.900Z,73.74
2023-01-07T09:55:35.663Z,73.72
2023-01-07T09:58:09.810Z,73.18
2023-01-07T10:00:38.405Z,73.15
2023-01-07T10:03:20.449Z,72.93
2023-01-07T10:06:04.259Z,72.20
2023-01-07T10:08:52.262Z,72.26
2023-01-07T10:11:29.432Z,71.95
2023-01-07T10:14:34.274Z,72.57
2023-01-07T10:17:06.371Z,72.12
2023-01-07T10:19:35.463Z,70.60
2023-01-07T10:22:15.651Z,70.77
2023-01-07T10:24:53.579Z,70.52
2023-01-07T10:27:30.038Z,70.67
2023-01-07T10:30:03.938Z,71.54
2023-01-07T10:32:33.172Z,71.68
2023-01-07T10:35:01.540Z,71.26
2023-01-07T10:37:31.454Z,70.90
2023-01-07T10:40:07.967Z,71.24
2023-01-07T10:42:45.626Z,71.19
2023-01-07T10:45:43.877Z,70.95
2023-01-07T10:48:16.162Z,70.70
2023-01-07T10:50:57.067Z,70.33
2023-01-07T10:53:43.068Z,70.05
2023-01-07T10:56:15.487Z,70.89
2023-01-07T10:58:45.998Z,70.64
2023-01-07T11:01:21.511Z,69.78
2023-01-07T11:03:53.411Z,70.34
2023-01-07T11:06:27.692Z,70.72
2023-01-07T11:08:54.937Z,70.76
2023-01-07T11:11:24.875Z,69.81
2023-01-07T11:14:06.731Z,70.63
2023-01-07T11:16:43.588Z,70.44
2023-01-07T11:19:12.748Z,70.23
2023-01-07T11:21:44.736Z,69.93
2023-01-07T11:24:26.578Z,70.25
2023-01-07T11:26:59.491Z,70.11
2023-01-07T11:29:34.957Z,70.33
2023-01-07T11:32:05.967Z,70.21
2023-01-07T11:34:47.580Z,69.88
2023-01-07T11:37:34.474Z,70.75
2023-01-07T11:40:05.010Z,70.17
2023-01-07T11:42:40.619Z,69.35
2023-01-07T11:45:22.801Z,70.95
2023-01-07T11:47:55.772Z,68.85
2023-01-07T11:50:30.594Z,69.18
2023-01-07T11:53:00.222Z,68.51
2023-01-07T11:55:27.195Z,69.22
2023-01-07T11:58:00.955Z,68.56
2023-01-07T12:00:43.456Z,69.46
2023-01-07T12:03:16.278Z,69.51
2023-01-07T12:05:46.660Z,69.25
2023-01-07T12:08:23.558Z,68.75
2023-01-07T12:10:58.429Z,68.12
2023-01-07T12:13:27.941Z,68.27
2023-01-07T12:16:06.066Z,68.15
2023-01-07T12:18:57.325Z,67.78
2023-01-07T12:21:33.951Z,67.80
2023-01-07T12:24:03.423Z,67.36
2023-01-07T12:26:40.999Z,66.86
2023-01-07T12:29:26.248Z,66.49
2023-01-07T12:32:19.189Z,66.12
2023-01-07T12:34:55.834Z,66.49
2023-01-07T12:37:37.277Z,65.68
2023-01-07T12:40:10.745Z,65.16
2023-01-07T12:42:40.959Z,65.29
2023-01-07T12:45:32.613Z,66.98
2023-01-07T12:48:04.291Z,66.32
2023-01-07T12:50:40.954Z,66.39
2023-01-07T12:53:19.258Z,66.33
2023-01-07T12:55:52.515Z,66.63
2023-01-07T12:58:57.757Z,67.33
2023-01-07T13:01:37.009Z,66.63
2023-01-07T13:04:06.373Z,67.60
2023-01-07T13:06:43.569Z,66.62
2023-01-07T13:09:21.918Z,66.47
2023-01-07T13:12:41.543Z,66.87
2023-01-07T13:15:20.830Z,67.05
2023-01-07T13:17:52.599Z,67.45
2023-01-07T13:20:47.181Z,66.87
2023-01-07T13:23:24.767Z,67.59
2023-01-07T13:26:12.116Z,67.62
2023-01-07T13:28:41.175Z,67.42
2023-01-07T13:31:45.363Z,68.38
2023-01-07T13:34:11.931Z,68.42
2023-01-07T13:37:11.567Z,68.45
2023-01-07T13:40:02.979Z,68.54
2023-01-07T13:42:53.523Z,69.57
2023-01-07T13:45:24.841Z,69.43
2023-01-07T13:47:59.153Z,69.92
2023-01-07T13:50:34.663Z,68.75
2023-01-07T13:53:27.200Z,70.18
2023-01-07T13:56:20.379Z,69.23
2023-01-07T13:58:47.790Z,69.05
2023-01-07T14:01:22.328Z,69.76
2023-01-07T14:03:53.793Z,70.21
2023-01-07T14:06:20.285Z,70.95
2023-01-07T14:08:52.572Z,70.77
2023-01-07T14:11:42.053Z,71.74
2023-01-07T14:14:21.401Z,71.37
2023-01-07T14:17:21.645Z,71.02
2023-01-07T14:20:13.768Z,71.29
2023-01-07T14:23:16.472Z,71.24
2023-01-07T14:25:45.745Z,71.82
2023-01-07T14:28:39.386Z,72.39
2023-01-07T14:31:19.632Z,72.62
2023-01-07T14:33:58.191Z,73.59
2023-01-07T14:37:04.847Z,73.68
2023-01-07T14:39:34.172Z,73.78
2023-01-07T14:42:19.121Z,73.36
2023-01-07T14:44:50.109Z,73.85
2023-01-07T14:47:44.749Z,74.93
2023-01-07T14:50:28.255Z,73.64
2023-01-07T14:53:16.899Z,73.68
2023-01-07T14:56:13.090Z,73.82
2023-01-07T14:58:56.443Z,74.08
2023-01-07T15:01:35.972Z,74.12
2023-01-07T15:04:21.101Z,74.23
2023-01-07T15:06:50.622Z,74.62
2023-01-07T15:09:41.712Z,73.92
2023-01-07T15:12:36.374Z,74.72
2023-01-07T15:15:34.287Z,75.31
2023-01-07T15:18:00.909Z,75.75
2023-01-07T15:20:45.330Z,75.76
2023-01-07T15:23:19.197Z,75.97
2023-01-07T15:25:58.561Z,76.42
2023-01-07T15:28:40.493Z,76.92
2023-01-07T15:31:21.285Z,77.37
2023-01-07T15:34:14.518Z,77.73
2023-01-07T15:36:46.003Z,77.55
2023-01-07T15:39:25.628Z,78.00
2023-01-07T15:41:58.680Z,78.92
2023-01-07T15:44:29.027Z,78.66
2023-01-07T15:46:55.653Z,78.77
2023-01-07T15:49:28.676Z,79.24
2023-01-07T15:52:00.507Z,79.82
2023-01-07T15:54:31.208Z,80.17
2023-01-07T15:57:01.593Z,80.65
2023-01-07T15:59:33.162Z,81.24
2023-01-07T16:02:29.105Z,81.87
2023-01-07T16:05:03.732Z,82.39
2023-01-07T16:07:50.336Z,82.59
2023-01-07T16:10:26.380Z,83.12
2023-01-07T16:12:58.566Z,83.32
2023-01-07T16:15:30.961Z,83.63
2023-01-07T16:18:00.375Z,84.59
2023-01-07T16:20:38.822Z,84.58
2023-01-07T16:23:10.626Z,85.46
2023-01-07T16:25:42.874Z,84.98
2023-01-07T16:28:14.588Z,85.31
2023-01-07T16:30:42.992Z,87.19
2023-01-07T16:33:18.213Z,86.11
2023-01-07T16:35:47.388Z,87.05
2023-01-07T16:38:16.202Z,86.22
2023-01-07T16:40:44.554Z,87.24
2023-01-07T16:43:46.263Z,87.58
2023-01-07T16:46:24.973Z,86.77
2023-01-07T16:49:09.525Z,87.33
2023-01-07T16:51:49.998Z,88.00
2023-01-07T16:54:28.648Z,87.51
2023-01-07T16:57:02.405Z,87.01
2023-01-07T16:59:34.915Z,87.76
2023-01-07T17:02:27.981Z,86.85
2023-01-07T17:04:58.119Z,87.10
2023-01-07T17:07:30.596Z,87.44
2023-01-07T17:09:58.516Z,87.42
2023-01-07T17:12:29.995Z,86.85
2023-01-07T17:14:56.390Z,86.37
2023-01-07T17:17:43.917Z,87.05
2023-01-07T17:20:22.524Z,87.11
2023-01-07T17:22:49.897Z,86.09
2023-01-07T17:25:25.971Z,86.88
2023-01-07T17:28:02.671Z,85.50
2023-01-07T17:30:38.499Z,85.48
2023-01-07T17:33:05.011Z,84.94
2023-01-07T17:35:31.480Z,85.10
2023-01-07T17:37:57.888Z,85.15
2023-01-07T17:40:24.354Z,84.70
2023-01-07T17:43:09.836Z,84.70
2023-01-07T17:45:37.036Z,85.06
2023-01-07T17:48:13.733Z,84.90
2023-01-07T17:50:42.246Z,84.38
2023-01-07T17:53:30.326Z,85.03
2023-01-07T17:55:57.798Z,85.06
2023-01-07T17:58:32.303Z,85.04
2023-01-07T18:01:00.937Z,84.45
2023-01-07T18:03:28.185Z,84.81
2023-01-07T18:05:54.840Z,84.72
2023-01-07T18:08:21.688Z,85.11
2023-01-07T18:11:07.375Z,85.12
2023-01-07T18:13:33.796Z,85.69
2023-01-07T18:16:00.416Z,86.56
2023-01-07T18:18:29.995Z,85.83
2023-01-07T18:20:57.603Z,86.27
2023-01-07T18:23:25.112Z,87.12
2023-01-07T18:25:51.682Z,87.00
2023-01-07T18:28:19.352Z,87.45
2023-01-07T18:30:45.716Z,88.09
2023-01-07T18:33:12.624Z,88.26
2023-01-07T18:35:42.416Z,88.34
2023-01-07T18:38:18.568Z,88.16
2023-01-07T18:40:45.305Z,88.24
2023-01-07T18:43:16.824Z,88.42
2023-01-07T18:45:44.970Z,88.54
2023-01-07T18:48:13.487Z,88.08
2023-01-07T18:50:44.303Z,88.19
2023-01-07T18:53:16.114Z,87.92
2023-01-07T18:55:43.510Z,87.57
2023-01-07T18:58:13.736Z,87.86
2023-01-07T19:00:41.199Z,87.61
2023-01-07T19:03:07.637Z,87.03
2023-01-07T19:05:34.121Z,87.08
2023-01-07T19:08:00.462Z,87.00
2023-01-07T19:10:27.998Z,87.06
2023-01-07T19:12:54.559Z,86.86
2023-01-07T19:15:21.035Z,87.19
2023-01-07T19:17:47.488Z,86.31
2023-01-07T19:20:15.334Z,86.89
2023-01-07T19:22:42.058Z,87.13
2023-01-07T19:25:11.458Z,86.78
2023-01-07T19:27:37.870Z,87.23
2023-01-07T19:30:12.078Z,86.97
2023-01-07T19:32:38.553Z,87.44
2023-01-07T19:35:08.041Z,86.73
2023-01-07T19:37:37.439Z,86.58
2023-01-07T19:40:05.308Z,85.96
2023-01-07T19:42:32.863Z,86.38
2023-01-07T19:45:03.575Z,86.14
2023-01-07T19:47:30.003Z,85.27
2023-01-07T19:49:56.428Z,85.83
2023-01-07T19:52:23.212Z,85.28
2023-01-07T19:54:52.465Z,85.88
2023-01-07T19:57:18.903Z,86.64
2023-01-07T19:59:46.485Z,85.63
2023-01-07T20:02:14.423Z,85.00
2023-01-07T20:04:42.747Z,85.12
2023-01-07T20:07:10.599Z,85.36
2023-01-07T20:09:37.052Z,85.25
2023-01-07T20:12:03.798Z,85.74
2023-01-07T20:14:30.214Z,84.79
2023-01-07T20:16:56.709Z,86.32
2023-01-07T20:19:23.391Z,85.84
2023-01-07T20:21:50.813Z,84.47
2023-01-07T20:24:17.202Z,83.89
2023-01-07T20:26:43.615Z,84.19
2023-01-07T20:29:12.319Z,84.47
2023-01-07T20:31:38.805Z,84.93
2023-01-07T20:34:05.231Z,84.92
2023-01-07T20:36:34.471Z,84.61
2023-01-07T20:39:05.865Z,84.52
2023-01-07T20:41:35.212Z,85.06
2023-01-07T20:44:03.330Z,85.27
2023-01-07T20:46:31.093Z,84.51
2023-01-07T20:48:59.327Z,85.14
2023-01-07T20:51:25.813Z,85.78
2023-01-07T20:53:52.440Z,86.17
2023-01-07T20:56:22.502Z,86.59
2023-01-07T20:58:49.840Z,85.05
2023-01-07T21:01:19.696Z,85.53
2023-01-07T21:03:52.973Z,85.67
2023-01-07T21:06:22.831Z,85.98
2023-01-07T21:08:52.192Z,85.13
2023-01-07T21:11:25.781Z,85.65
2023-01-07T21:14:05.358Z,86.07
2023-01-07T21:16:32.453Z,84.46
2023-01-07T21:18:58.881Z,85.19
2023-01-07T21:21:25.720Z,84.99
2023-01-07T21:23:53.423Z,84.63
2023-01-07T21:26:20.980Z,84.33
2023-01-07T21:28:47.374Z,85.12
2023-01-07T21:31:15.693Z,85.40
2023-01-07T21:33:46.326Z,84.18
2023-01-07T21:36:18.400Z,84.69
2023-01-07T21:38:49.273Z,84.53
2023-01-07T21:41:17.066Z,84.83
2023-01-07T21:43:44.423Z,85.05
2023-01-07T21:46:18.072Z,85.82
2023-01-07T21:48:46.987Z,84.99
2023-01-07T21:51:25.871Z,85.01
2023-01-07T21:53:56.330Z,85.12
2023-01-07T21:56:27.081Z,84.88
2023-01-07T21:58:53.662Z,85.50
2023-01-07T22:01:20.131Z,84.82
2023-01-07T22:03:49.966Z,85.65
2023-01-07T22:06:22.025Z,86.17
2023-01-07T22:08:55.986Z,86.23
2023-01-07T22:11:22.616Z,86.74
2023-01-07T22:13:50.879Z,86.05
2023-01-07T22:16:17.852Z,85.80
2023-01-07T22:18:44.327Z,85.35
2023-01-07T22:21:10.811Z,85.76
2023-01-07T22:23:44.286Z,83.90
2023-01-07T22:26:10.797Z,84.54
2023-01-07T22:28:38.590Z,84.86
2023-01-07T22:31:21.581Z,86.41
2023-01-07T22:33:48.522Z,87.47
2023-01-07T22:36:21.663Z,86.52
2023-01-07T22:38:49.450Z,89.06
2023-01-07T22:41:18.147Z,88.96
2023-01-07T22:43:44.812Z,86.95
2023-01-07T22:46:19.731Z,88.18
2023-01-07T22:48:46.102Z,88.27
2023-01-07T22:51:20.895Z,88.90
2023-01-07T22:53:56.174Z,87.99
2023-01-07T22:56:23.475Z,87.73
2023-01-07T22:58:50.075Z,87.84
2023-01-07T23:01:19.504Z,87.36
2023-01-07T23:03:46.227Z,86.68
2023-01-07T23:06:15.057Z,86.51
2023-01-07T23:08:42.103Z,86.82
2023-01-07T23:11:11.134Z,86.77
2023-01-07T23:13:38.127Z,86.15
2023-01-07T23:16:06.631Z,86.42
2023-01-07T23:18:33.219Z,86.09
2023-01-07T23:20:59.674Z,85.58
2023-01-07T23:23:26.053Z,85.93
2023-01-07T23:25:52.528Z,86.85
2023-01-07T23:28:19.494Z,86.07
2023-01-07T23:30:45.964Z,85.72
2023-01-07T23:33:12.393Z,85.38
2023-01-07T23:35:38.753Z,85.45
2023-01-07T23:38:05.355Z,84.45
2023-01-07T23:40:31.937Z,84.82
2023-01-07T23:42:58.404Z,84.90
2023-01-07T23:45:24.794Z,84.74
2023-01-07T23:47:51.223Z,84.73
2023-01-07T23:50:17.815Z,84.59
2023-01-07T23:52:44.187Z,84.78
2023-01-07T23:55:10.826Z,84.37
2023-01-07T23:57:39.559Z,84.81
